sensor_id;sensor_type;location;lat;lon;timestamp;P1;durP1;ratioP1;P2;durP2;ratioP2
75496;SDS011;64074;47.540;19.072;2022-10-18T00:01:48;28.77;;;17.88;;
75496;SDS011;64074;47.540;19.072;2022-10-18T00:04:58;27.75;;;17.75;;
75496;SDS011;64074;47.540;19.072;2022-10-18T00:08:32;30.53;;;17.80;;
75496;SDS011;64074;47.540;19.072;2022-10-18T00:11:53;30.77;;;17.40;;
75496;SDS011;64074;47.540;19.072;2022-10-18T00:14:56;25.85;;;17.10;;
75496;SDS011;64074;47.540;19.072;2022-10-18T00:18:06;26.77;;;16.92;;
75496;SDS011;64074;47.540;19.072;2022-10-18T00:21:17;27.95;;;16.55;;
75496;SDS011;64074;47.540;19.072;2022-10-18T00:24:31;32.37;;;17.53;;
75496;SDS011;64074;47.540;19.072;2022-10-18T00:27:34;29.73;;;16.73;;
75496;SDS011;64074;47.540;19.072;2022-10-18T00:30:39;28.48;;;16.83;;
75496;SDS011;64074;47.540;19.072;2022-10-18T00:33:52;47.28;;;18.08;;
75496;SDS011;64074;47.540;19.072;2022-10-18T00:37:15;27.27;;;17.27;;
75496;SDS011;64074;47.540;19.072;2022-10-18T00:40:25;30.50;;;17.70;;
75496;SDS011;64074;47.540;19.072;2022-10-18T00:43:59;30.37;;;16.77;;
75496;SDS011;64074;47.540;19.072;2022-10-18T00:47:18;29.63;;;17.58;;
75496;SDS011;64074;47.540;19.072;2022-10-18T00:50:42;30.55;;;17.08;;
75496;SDS011;64074;47.540;19.072;2022-10-18T00:54:03;28.60;;;17.85;;
75496;SDS011;64074;47.540;19.072;2022-10-18T00:57:25;28.67;;;17.00;;
75496;SDS011;64074;47.540;19.072;2022-10-18T01:00:48;29.33;;;17.40;;
75496;SDS011;64074;47.540;19.072;2022-10-18T01:04:12;27.63;;;16.98;;
75496;SDS011;64074;47.540;19.072;2022-10-18T01:18:24;30.83;;;17.93;;
75496;SDS011;64074;47.540;19.072;2022-10-18T01:21:55;28.02;;;16.88;;
75496;SDS011;64074;47.540;19.072;2022-10-18T01:29:01;27.80;;;16.95;;
75496;SDS011;64074;47.540;19.072;2022-10-18T01:32:40;26.00;;;16.17;;
75496;SDS011;64074;47.540;19.072;2022-10-18T01:39:37;29.58;;;16.63;;
75496;SDS011;64074;47.540;19.072;2022-10-18T01:42:54;26.52;;;16.65;;
75496;SDS011;64074;47.540;19.072;2022-10-18T01:46:14;28.90;;;17.60;;
75496;SDS011;64074;47.540;19.072;2022-10-18T01:49:33;28.00;;;16.47;;
75496;SDS011;64074;47.540;19.072;2022-10-18T01:52:53;29.87;;;16.60;;
75496;SDS011;64074;47.540;19.072;2022-10-18T02:03:17;26.20;;;17.00;;
75496;SDS011;64074;47.540;19.072;2022-10-18T02:06:30;24.83;;;16.70;;
75496;SDS011;64074;47.540;19.072;2022-10-18T02:09:47;24.23;;;15.53;;
75496;SDS011;64074;47.540;19.072;2022-10-18T02:13:08;26.92;;;17.05;;
75496;SDS011;64074;47.540;19.072;2022-10-18T02:16:19;26.88;;;15.95;;
75496;SDS011;64074;47.540;19.072;2022-10-18T02:19:31;26.27;;;16.98;;
75496;SDS011;64074;47.540;19.072;2022-10-18T02:22:51;26.27;;;16.40;;
75496;SDS011;64074;47.540;19.072;2022-10-18T02:26:04;26.70;;;16.93;;
75496;SDS011;64074;47.540;19.072;2022-10-18T02:29:26;25.60;;;16.25;;
75496;SDS011;64074;47.540;19.072;2022-10-18T02:32:50;26.20;;;16.23;;
75496;SDS011;64074;47.540;19.072;2022-10-18T02:36:11;23.80;;;15.98;;
75496;SDS011;64074;47.540;19.072;2022-10-18T02:39:47;23.80;;;16.20;;
75496;SDS011;64074;47.540;19.072;2022-10-18T02:43:04;27.00;;;16.50;;
75496;SDS011;64074;47.540;19.072;2022-10-18T02:46:18;25.85;;;16.73;;
75496;SDS011;64074;47.540;19.072;2022-10-18T02:49:29;24.30;;;15.32;;
75496;SDS011;64074;47.540;19.072;2022-10-18T02:52:59;28.15;;;16.27;;
75496;SDS011;64074;47.540;19.072;2022-10-18T02:56:22;23.83;;;14.93;;
75496;SDS011;64074;47.540;19.072;2022-10-18T02:59:45;23.87;;;15.33;;
75496;SDS011;64074;47.540;19.072;2022-10-18T03:03:07;28.15;;;15.65;;
75496;SDS011;64074;47.540;19.072;2022-10-18T03:06:32;27.88;;;15.23;;
75496;SDS011;64074;47.540;19.072;2022-10-18T03:09:56;24.17;;;15.13;;
75496;SDS011;64074;47.540;19.072;2022-10-18T03:13:16;24.93;;;14.60;;
75496;SDS011;64074;47.540;19.072;2022-10-18T03:16:30;24.50;;;14.97;;
75496;SDS011;64074;47.540;19.072;2022-10-18T03:19:53;23.55;;;15.00;;
75496;SDS011;64074;47.540;19.072;2022-10-18T03:23:16;26.42;;;14.52;;
75496;SDS011;64074;47.540;19.072;2022-10-18T03:26:40;25.85;;;15.15;;
75496;SDS011;64074;47.540;19.072;2022-10-18T03:30:07;34.03;;;14.77;;
75496;SDS011;64074;47.540;19.072;2022-10-18T03:33:25;28.23;;;15.13;;
75496;SDS011;64074;47.540;19.072;2022-10-18T03:36:47;27.27;;;15.05;;
75496;SDS011;64074;47.540;19.072;2022-10-18T03:40:14;22.10;;;15.07;;
75496;SDS011;64074;47.540;19.072;2022-10-18T03:43:32;24.50;;;14.63;;
75496;SDS011;64074;47.540;19.072;2022-10-18T03:46:52;22.50;;;14.13;;
75496;SDS011;64074;47.540;19.072;2022-10-18T03:50:16;25.00;;;14.67;;
75496;SDS011;64074;47.540;19.072;2022-10-18T03:53:36;26.38;;;14.60;;
75496;SDS011;64074;47.540;19.072;2022-10-18T03:57:01;25.88;;;14.70;;
75496;SDS011;64074;47.540;19.072;2022-10-18T04:00:14;23.00;;;14.60;;
75496;SDS011;64074;47.540;19.072;2022-10-18T04:03:41;22.47;;;14.90;;
75496;SDS011;64074;47.540;19.072;2022-10-18T04:07:01;27.43;;;14.70;;
75496;SDS011;64074;47.540;19.072;2022-10-18T04:10:22;25.02;;;15.38;;
75496;SDS011;64074;47.540;19.072;2022-10-18T04:13:41;22.60;;;14.27;;
75496;SDS011;64074;47.540;19.072;2022-10-18T04:16:54;25.85;;;15.65;;
75496;SDS011;64074;47.540;19.072;2022-10-18T04:20:03;27.37;;;15.93;;
75496;SDS011;64074;47.540;19.072;2022-10-18T04:23:15;25.37;;;15.40;;
75496;SDS011;64074;47.540;19.072;2022-10-18T04:26:35;23.90;;;14.65;;
75496;SDS011;64074;47.540;19.072;2022-10-18T04:29:55;27.38;;;13.95;;
75496;SDS011;64074;47.540;19.072;2022-10-18T04:33:22;22.50;;;13.40;;
75496;SDS011;64074;47.540;19.072;2022-10-18T04:36:38;24.40;;;13.97;;
75496;SDS011;64074;47.540;19.072;2022-10-18T04:39:48;24.17;;;15.13;;
75496;SDS011;64074;47.540;19.072;2022-10-18T04:43:22;25.25;;;15.18;;
75496;SDS011;64074;47.540;19.072;2022-10-18T04:46:44;25.30;;;15.98;;
75496;SDS011;64074;47.540;19.072;2022-10-18T04:50:07;27.13;;;16.25;;
75496;SDS011;64074;47.540;19.072;2022-10-18T04:53:28;25.07;;;15.83;;
75496;SDS011;64074;47.540;19.072;2022-10-18T04:56:51;26.67;;;15.97;;
75496;SDS011;64074;47.540;19.072;2022-10-18T05:00:14;31.00;;;17.17;;
75496;SDS011;64074;47.540;19.072;2022-10-18T05:03:37;29.02;;;16.45;;
75496;SDS011;64074;47.540;19.072;2022-10-18T05:06:58;27.77;;;16.70;;
75496;SDS011;64074;47.540;19.072;2022-10-18T05:10:28;26.27;;;16.50;;
75496;SDS011;64074;47.540;19.072;2022-10-18T05:13:47;25.33;;;16.53;;
75496;SDS011;64074;47.540;19.072;2022-10-18T05:16:58;29.75;;;16.63;;
75496;SDS011;64074;47.540;19.072;2022-10-18T05:20:00;28.63;;;17.58;;
75496;SDS011;64074;47.540;19.072;2022-10-18T05:23:11;27.73;;;16.63;;
75496;SDS011;64074;47.540;19.072;2022-10-18T05:26:19;28.17;;;17.07;;
75496;SDS011;64074;47.540;19.072;2022-10-18T05:29:42;32.23;;;17.53;;
75496;SDS011;64074;47.540;19.072;2022-10-18T05:33:13;34.80;;;16.90;;
75496;SDS011;64074;47.540;19.072;2022-10-18T05:36:41;33.22;;;19.30;;
75496;SDS011;64074;47.540;19.072;2022-10-18T05:39:58;31.67;;;19.25;;
75496;SDS011;64074;47.540;19.072;2022-10-18T05:43:22;34.70;;;16.50;;
75496;SDS011;64074;47.540;19.072;2022-10-18T05:46:36;31.57;;;16.77;;
75496;SDS011;64074;47.540;19.072;2022-10-18T05:50:08;28.33;;;17.13;;
75496;SDS011;64074;47.540;19.072;2022-10-18T05:53:25;30.90;;;17.42;;
75496;SDS011;64074;47.540;19.072;2022-10-18T05:56:46;35.95;;;16.40;;
75496;SDS011;64074;47.540;19.072;2022-10-18T06:00:06;33.23;;;18.07;;
75496;SDS011;64074;47.540;19.072;2022-10-18T06:08:44;38.33;;;17.92;;
75496;SDS011;64074;47.540;19.072;2022-10-18T06:15:31;32.25;;;17.05;;
75496;SDS011;64074;47.540;19.072;2022-10-18T06:22:07;27.17;;;15.70;;
75496;SDS011;64074;47.540;19.072;2022-10-18T06:28:39;29.13;;;17.20;;
75496;SDS011;64074;47.540;19.072;2022-10-18T06:31:49;31.15;;;16.13;;
75496;SDS011;64074;47.540;19.072;2022-10-18T06:34:56;27.87;;;16.40;;
75496;SDS011;64074;47.540;19.072;2022-10-18T06:42:19;28.80;;;16.40;;
75496;SDS011;64074;47.540;19.072;2022-10-18T06:45:32;24.42;;;16.00;;
75496;SDS011;64074;47.540;19.072;2022-10-18T06:49:20;33.33;;;16.85;;
75496;SDS011;64074;47.540;19.072;2022-10-18T07:00:17;29.75;;;17.33;;
75496;SDS011;64074;47.540;19.072;2022-10-18T07:03:22;27.55;;;16.20;;
75496;SDS011;64074;47.540;19.072;2022-10-18T07:09:59;27.63;;;17.10;;
75496;SDS011;64074;47.540;19.072;2022-10-18T07:13:17;27.87;;;17.37;;
75496;SDS011;64074;47.540;19.072;2022-10-18T07:16:46;28.08;;;17.08;;
75496;SDS011;64074;47.540;19.072;2022-10-18T07:20:10;30.05;;;18.50;;
75496;SDS011;64074;47.540;19.072;2022-10-18T07:23:26;33.25;;;18.92;;
75496;SDS011;64074;47.540;19.072;2022-10-18T07:30:21;30.73;;;17.87;;
75496;SDS011;64074;47.540;19.072;2022-10-18T08:03:25;32.78;;;19.05;;
75496;SDS011;64074;47.540;19.072;2022-10-18T08:06:35;30.63;;;18.37;;
75496;SDS011;64074;47.540;19.072;2022-10-18T08:13:31;32.95;;;20.80;;
75496;SDS011;64074;47.540;19.072;2022-10-18T08:17:04;30.80;;;19.27;;
75496;SDS011;64074;47.540;19.072;2022-10-18T08:34:10;27.92;;;16.20;;
75496;SDS011;64074;47.540;19.072;2022-10-18T08:37:37;28.83;;;16.50;;
75496;SDS011;64074;47.540;19.072;2022-10-18T08:49:27;27.70;;;16.10;;
75496;SDS011;64074;47.540;19.072;2022-10-18T08:59:19;25.38;;;14.90;;
75496;SDS011;64074;47.540;19.072;2022-10-18T09:36:14;14.65;;;8.77;;
75496;SDS011;64074;47.540;19.072;2022-10-18T09:39:38;15.05;;;9.05;;
75496;SDS011;64074;47.540;19.072;2022-10-18T09:48:02;15.40;;;10.50;;
75496;SDS011;64074;47.540;19.072;2022-10-18T09:55:14;13.52;;;9.30;;
75496;SDS011;64074;47.540;19.072;2022-10-18T09:58:48;13.75;;;8.40;;
75496;SDS011;64074;47.540;19.072;2022-10-18T10:16:49;15.45;;;9.93;;
75496;SDS011;64074;47.540;19.072;2022-10-18T10:19:59;17.15;;;9.30;;
75496;SDS011;64074;47.540;19.072;2022-10-18T10:30:35;16.50;;;9.02;;
75496;SDS011;64074;47.540;19.072;2022-10-18T10:37:54;12.07;;;7.90;;
75496;SDS011;64074;47.540;19.072;2022-10-18T10:44:37;10.40;;;6.37;;
75496;SDS011;64074;47.540;19.072;2022-10-18T11:11:51;25.38;;;18.92;;
75496;SDS011;64074;47.540;19.072;2022-10-18T11:23:39;14.07;;;6.07;;
75496;SDS011;64074;47.540;19.072;2022-10-18T11:27:00;13.27;;;6.78;;
75496;SDS011;64074;47.540;19.072;2022-10-18T11:34:40;10.00;;;5.63;;
75496;SDS011;64074;47.540;19.072;2022-10-18T12:08:35;13.32;;;6.55;;
75496;SDS011;64074;47.540;19.072;2022-10-18T12:24:24;12.57;;;6.10;;
75496;SDS011;64074;47.540;19.072;2022-10-18T12:32:28;9.85;;;6.82;;
75496;SDS011;64074;47.540;19.072;2022-10-18T12:36:26;11.57;;;6.90;;
75496;SDS011;64074;47.540;19.072;2022-10-18T12:39:18;12.57;;;6.63;;
75496;SDS011;64074;47.540;19.072;2022-10-18T12:42:51;12.77;;;6.13;;
75496;SDS011;64074;47.540;19.072;2022-10-18T12:46:20;9.18;;;6.10;;
75496;SDS011;64074;47.540;19.072;2022-10-18T12:49:40;9.13;;;6.53;;
75496;SDS011;64074;47.540;19.072;2022-10-18T12:57:59;10.07;;;6.13;;
75496;SDS011;64074;47.540;19.072;2022-10-18T13:01:20;7.43;;;5.47;;
75496;SDS011;64074;47.540;19.072;2022-10-18T13:04:38;16.58;;;6.47;;
75496;SDS011;64074;47.540;19.072;2022-10-18T13:07:44;9.88;;;6.40;;
75496;SDS011;64074;47.540;19.072;2022-10-18T13:10:56;11.67;;;6.10;;
75496;SDS011;64074;47.540;19.072;2022-10-18T13:14:21;10.23;;;6.17;;
75496;SDS011;64074;47.540;19.072;2022-10-18T13:21:01;10.50;;;6.10;;
75496;SDS011;64074;47.540;19.072;2022-10-18T13:27:39;8.37;;;5.57;;
75496;SDS011;64074;47.540;19.072;2022-10-18T13:30:56;8.80;;;4.70;;
75496;SDS011;64074;47.540;19.072;2022-10-18T13:34:21;7.45;;;4.43;;
75496;SDS011;64074;47.540;19.072;2022-10-18T13:37:35;8.68;;;4.60;;
75496;SDS011;64074;47.540;19.072;2022-10-18T13:40:40;10.82;;;4.97;;
75496;SDS011;64074;47.540;19.072;2022-10-18T13:50:21;7.13;;;4.30;;
75496;SDS011;64074;47.540;19.072;2022-10-18T13:53:43;13.23;;;5.80;;
75496;SDS011;64074;47.540;19.072;2022-10-18T14:00:34;9.13;;;5.43;;
75496;SDS011;64074;47.540;19.072;2022-10-18T14:14:55;10.25;;;4.35;;
75496;SDS011;64074;47.540;19.072;2022-10-18T14:25:38;7.15;;;4.40;;
75496;SDS011;64074;47.540;19.072;2022-10-18T14:29:05;12.00;;;5.38;;
75496;SDS011;64074;47.540;19.072;2022-10-18T14:32:23;7.63;;;5.07;;
75496;SDS011;64074;47.540;19.072;2022-10-18T14:35:31;9.13;;;4.43;;
75496;SDS011;64074;47.540;19.072;2022-10-18T14:38:56;6.03;;;4.57;;
75496;SDS011;64074;47.540;19.072;2022-10-18T14:42:23;9.45;;;5.10;;
75496;SDS011;64074;47.540;19.072;2022-10-18T14:45:43;10.82;;;6.85;;
75496;SDS011;64074;47.540;19.072;2022-10-18T14:49:11;9.32;;;5.20;;
75496;SDS011;64074;47.540;19.072;2022-10-18T14:52:25;9.90;;;4.73;;
75496;SDS011;64074;47.540;19.072;2022-10-18T14:55:51;9.17;;;4.57;;
75496;SDS011;64074;47.540;19.072;2022-10-18T14:59:19;10.70;;;5.63;;
75496;SDS011;64074;47.540;19.072;2022-10-18T15:02:29;10.38;;;5.18;;
75496;SDS011;64074;47.540;19.072;2022-10-18T15:05:55;7.40;;;5.32;;
75496;SDS011;64074;47.540;19.072;2022-10-18T15:09:19;11.53;;;5.90;;
75496;SDS011;64074;47.540;19.072;2022-10-18T15:12:41;11.37;;;5.30;;
75496;SDS011;64074;47.540;19.072;2022-10-18T15:16:16;11.43;;;5.63;;
75496;SDS011;64074;47.540;19.072;2022-10-18T15:20:17;8.18;;;4.60;;
75496;SDS011;64074;47.540;19.072;2022-10-18T15:23:26;10.07;;;5.70;;
75496;SDS011;64074;47.540;19.072;2022-10-18T15:26:41;11.50;;;5.90;;
75496;SDS011;64074;47.540;19.072;2022-10-18T15:30:07;12.20;;;5.67;;
75496;SDS011;64074;47.540;19.072;2022-10-18T15:33:28;7.68;;;4.75;;
75496;SDS011;64074;47.540;19.072;2022-10-18T15:36:36;9.52;;;5.05;;
75496;SDS011;64074;47.540;19.072;2022-10-18T15:39:40;9.05;;;5.07;;
75496;SDS011;64074;47.540;19.072;2022-10-18T15:42:44;9.20;;;5.20;;
75496;SDS011;64074;47.540;19.072;2022-10-18T15:45:50;9.43;;;5.00;;
75496;SDS011;64074;47.540;19.072;2022-10-18T15:48:55;11.52;;;5.93;;
75496;SDS011;64074;47.540;19.072;2022-10-18T15:58:38;14.53;;;5.50;;
75496;SDS011;64074;47.540;19.072;2022-10-18T16:01:45;12.10;;;5.77;;
75496;SDS011;64074;47.540;19.072;2022-10-18T16:04:57;12.73;;;6.03;;
75496;SDS011;64074;47.540;19.072;2022-10-18T16:08:23;14.32;;;5.72;;
75496;SDS011;64074;47.540;19.072;2022-10-18T16:11:33;11.90;;;5.38;;
75496;SDS011;64074;47.540;19.072;2022-10-18T16:14:37;13.43;;;5.60;;
75496;SDS011;64074;47.540;19.072;2022-10-18T16:17:47;12.87;;;6.10;;
75496;SDS011;64074;47.540;19.072;2022-10-18T16:20:59;12.48;;;6.25;;
75496;SDS011;64074;47.540;19.072;2022-10-18T16:24:22;19.50;;;7.80;;
75496;SDS011;64074;47.540;19.072;2022-10-18T16:27:44;17.13;;;6.95;;
75496;SDS011;64074;47.540;19.072;2022-10-18T16:31:08;20.60;;;6.23;;
75496;SDS011;64074;47.540;19.072;2022-10-18T16:34:33;20.63;;;5.77;;
75496;SDS011;64074;47.540;19.072;2022-10-18T16:37:51;25.23;;;6.28;;
75496;SDS011;64074;47.540;19.072;2022-10-18T16:41:14;13.85;;;5.90;;
75496;SDS011;64074;47.540;19.072;2022-10-18T16:44:37;9.70;;;5.93;;
75496;SDS011;64074;47.540;19.072;2022-10-18T16:47:59;14.47;;;6.57;;
75496;SDS011;64074;47.540;19.072;2022-10-18T16:51:20;13.07;;;6.20;;
75496;SDS011;64074;47.540;19.072;2022-10-18T16:54:41;9.68;;;5.70;;
75496;SDS011;64074;47.540;19.072;2022-10-18T16:57:44;15.93;;;6.25;;
75496;SDS011;64074;47.540;19.072;2022-10-18T17:00:50;13.50;;;6.68;;
75496;SDS011;64074;47.540;19.072;2022-10-18T17:03:59;13.67;;;7.10;;
75496;SDS011;64074;47.540;19.072;2022-10-18T17:07:20;17.13;;;7.10;;
75496;SDS011;64074;47.540;19.072;2022-10-18T17:10:39;15.43;;;7.55;;
75496;SDS011;64074;47.540;19.072;2022-10-18T17:14:01;15.10;;;6.50;;
75496;SDS011;64074;47.540;19.072;2022-10-18T17:17:04;17.90;;;6.82;;
75496;SDS011;64074;47.540;19.072;2022-10-18T17:20:16;18.17;;;7.20;;
75496;SDS011;64074;47.540;19.072;2022-10-18T17:23:26;15.73;;;7.60;;
75496;SDS011;64074;47.540;19.072;2022-10-18T17:26:36;18.50;;;7.65;;
75496;SDS011;64074;47.540;19.072;2022-10-18T17:29:58;20.25;;;7.63;;
75496;SDS011;64074;47.540;19.072;2022-10-18T17:33:18;14.70;;;7.20;;
75496;SDS011;64074;47.540;19.072;2022-10-18T17:36:38;13.93;;;7.30;;
75496;SDS011;64074;47.540;19.072;2022-10-18T17:39:51;22.40;;;10.60;;
75496;SDS011;64074;47.540;19.072;2022-10-18T17:42:55;16.13;;;8.10;;
75496;SDS011;64074;47.540;19.072;2022-10-18T17:46:09;19.80;;;8.10;;
75496;SDS011;64074;47.540;19.072;2022-10-18T17:49:27;19.23;;;8.25;;
75496;SDS011;64074;47.540;19.072;2022-10-18T17:52:47;20.87;;;8.33;;
75496;SDS011;64074;47.540;19.072;2022-10-18T17:55:57;20.73;;;7.60;;
75496;SDS011;64074;47.540;19.072;2022-10-18T17:59:10;19.20;;;8.98;;
75496;SDS011;64074;47.540;19.072;2022-10-18T18:02:20;18.05;;;8.48;;
75496;SDS011;64074;47.540;19.072;2022-10-18T18:09:41;21.27;;;9.80;;
75496;SDS011;64074;47.540;19.072;2022-10-18T18:12:57;16.33;;;9.37;;
75496;SDS011;64074;47.540;19.072;2022-10-18T18:16:25;21.67;;;9.73;;
75496;SDS011;64074;47.540;19.072;2022-10-18T18:19:46;18.95;;;9.90;;
75496;SDS011;64074;47.540;19.072;2022-10-18T18:23:00;18.05;;;9.50;;
75496;SDS011;64074;47.540;19.072;2022-10-18T18:26:32;20.47;;;10.27;;
75496;SDS011;64074;47.540;19.072;2022-10-18T18:29:55;16.50;;;10.30;;
75496;SDS011;64074;47.540;19.072;2022-10-18T18:33:20;20.10;;;10.20;;
75496;SDS011;64074;47.540;19.072;2022-10-18T18:36:41;17.55;;;9.45;;
75496;SDS011;64074;47.540;19.072;2022-10-18T18:40:03;19.75;;;11.32;;
75496;SDS011;64074;47.540;19.072;2022-10-18T18:43:24;20.73;;;11.87;;
75496;SDS011;64074;47.540;19.072;2022-10-18T18:46:46;20.53;;;11.53;;
75496;SDS011;64074;47.540;19.072;2022-10-18T18:49:56;21.25;;;12.60;;
75496;SDS011;64074;47.540;19.072;2022-10-18T18:53:30;19.95;;;11.57;;
75496;SDS011;64074;47.540;19.072;2022-10-18T18:56:54;19.85;;;11.55;;
75496;SDS011;64074;47.540;19.072;2022-10-18T19:00:18;24.70;;;12.73;;
75496;SDS011;64074;47.540;19.072;2022-10-18T19:03:37;21.03;;;11.60;;
75496;SDS011;64074;47.540;19.072;2022-10-18T19:06:59;19.20;;;11.85;;
75496;SDS011;64074;47.540;19.072;2022-10-18T19:10:23;20.77;;;12.23;;
75496;SDS011;64074;47.540;19.072;2022-10-18T19:13:45;21.65;;;11.95;;
75496;SDS011;64074;47.540;19.072;2022-10-18T19:16:57;25.57;;;12.53;;
75496;SDS011;64074;47.540;19.072;2022-10-18T19:20:27;24.40;;;12.37;;
75496;SDS011;64074;47.540;19.072;2022-10-18T19:23:51;18.45;;;12.23;;
75496;SDS011;64074;47.540;19.072;2022-10-18T19:27:11;21.98;;;12.30;;
75496;SDS011;64074;47.540;19.072;2022-10-18T19:30:33;26.88;;;13.05;;
75496;SDS011;64074;47.540;19.072;2022-10-18T19:33:57;25.17;;;13.80;;
75496;SDS011;64074;47.540;19.072;2022-10-18T19:37:15;26.07;;;14.90;;
75496;SDS011;64074;47.540;19.072;2022-10-18T19:40:35;29.92;;;15.45;;
75496;SDS011;64074;47.540;19.072;2022-10-18T19:44:00;26.75;;;15.70;;
75496;SDS011;64074;47.540;19.072;2022-10-18T19:47:20;26.83;;;15.50;;
75496;SDS011;64074;47.540;19.072;2022-10-18T19:50:41;25.67;;;15.83;;
75496;SDS011;64074;47.540;19.072;2022-10-18T19:54:01;24.67;;;15.17;;
75496;SDS011;64074;47.540;19.072;2022-10-18T19:57:21;30.65;;;15.55;;
75496;SDS011;64074;47.540;19.072;2022-10-18T20:00:50;25.00;;;15.95;;
75496;SDS011;64074;47.540;19.072;2022-10-18T20:03:57;27.20;;;15.80;;
75496;SDS011;64074;47.540;19.072;2022-10-18T20:07:01;25.97;;;15.23;;
75496;SDS011;64074;47.540;19.072;2022-10-18T20:10:10;26.50;;;15.50;;
75496;SDS011;64074;47.540;19.072;2022-10-18T20:13:30;26.33;;;16.13;;
75496;SDS011;64074;47.540;19.072;2022-10-18T20:16:57;26.52;;;16.15;;
75496;SDS011;64074;47.540;19.072;2022-10-18T20:20:08;29.27;;;17.08;;
75496;SDS011;64074;47.540;19.072;2022-10-18T20:23:36;27.57;;;17.07;;
75496;SDS011;64074;47.540;19.072;2022-10-18T20:26:57;28.73;;;18.17;;
75496;SDS011;64074;47.540;19.072;2022-10-18T20:30:19;30.20;;;17.50;;
75496;SDS011;64074;47.540;19.072;2022-10-18T20:33:41;27.75;;;17.77;;
75496;SDS011;64074;47.540;19.072;2022-10-18T20:37:07;30.70;;;18.55;;
75496;SDS011;64074;47.540;19.072;2022-10-18T20:40:27;28.70;;;17.93;;
75496;SDS011;64074;47.540;19.072;2022-10-18T20:43:38;30.07;;;18.97;;
75496;SDS011;64074;47.540;19.072;2022-10-18T20:47:08;32.58;;;18.05;;
75496;SDS011;64074;47.540;19.072;2022-10-18T20:50:30;30.88;;;17.40;;
75496;SDS011;64074;47.540;19.072;2022-10-18T20:53:33;28.92;;;17.77;;
75496;SDS011;64074;47.540;19.072;2022-10-18T20:56:43;31.20;;;17.43;;
75496;SDS011;64074;47.540;19.072;2022-10-18T20:59:52;30.50;;;17.90;;
75496;SDS011;64074;47.540;19.072;2022-10-18T21:03:15;29.88;;;18.08;;
75496;SDS011;64074;47.540;19.072;2022-10-18T21:06:51;33.80;;;17.80;;
75496;SDS011;64074;47.540;19.072;2022-10-18T21:10:01;26.55;;;17.05;;
75496;SDS011;64074;47.540;19.072;2022-10-18T21:13:37;28.57;;;16.60;;
75496;SDS011;64074;47.540;19.072;2022-10-18T21:17:13;27.20;;;17.33;;
75496;SDS011;64074;47.540;19.072;2022-10-18T21:20:46;31.05;;;17.48;;
75496;SDS011;64074;47.540;19.072;2022-10-18T21:24:17;27.58;;;17.17;;
75496;SDS011;64074;47.540;19.072;2022-10-18T21:27:38;28.60;;;16.77;;
75496;SDS011;64074;47.540;19.072;2022-10-18T21:31:15;29.07;;;16.47;;
75496;SDS011;64074;47.540;19.072;2022-10-18T21:34:27;30.93;;;17.13;;
75496;SDS011;64074;47.540;19.072;2022-10-18T21:37:48;29.27;;;18.33;;
75496;SDS011;64074;47.540;19.072;2022-10-18T21:41:09;27.10;;;16.67;;
75496;SDS011;64074;47.540;19.072;2022-10-18T21:44:27;27.08;;;16.90;;
75496;SDS011;64074;47.540;19.072;2022-10-18T21:47:51;27.00;;;17.10;;
75496;SDS011;64074;47.540;19.072;2022-10-18T21:51:17;26.83;;;16.97;;
75496;SDS011;64074;47.540;19.072;2022-10-18T21:54:28;28.42;;;17.02;;
75496;SDS011;64074;47.540;19.072;2022-10-18T21:57:55;28.73;;;15.85;;
75496;SDS011;64074;47.540;19.072;2022-10-18T22:01:23;30.33;;;16.88;;
75496;SDS011;64074;47.540;19.072;2022-10-18T22:04:40;29.20;;;16.83;;
75496;SDS011;64074;47.540;19.072;2022-10-18T22:08:01;24.97;;;15.93;;
75496;SDS011;64074;47.540;19.072;2022-10-18T22:11:27;23.77;;;15.60;;
75496;SDS011;64074;47.540;19.072;2022-10-18T22:14:42;23.67;;;14.80;;
75496;SDS011;64074;47.540;19.072;2022-10-18T22:18:03;23.05;;;14.95;;
75496;SDS011;64074;47.540;19.072;2022-10-18T22:21:19;24.17;;;15.23;;
75496;SDS011;64074;47.540;19.072;2022-10-18T22:24:23;29.93;;;15.07;;
75496;SDS011;64074;47.540;19.072;2022-10-18T22:27:32;29.30;;;16.33;;
75496;SDS011;64074;47.540;19.072;2022-10-18T22:30:52;29.35;;;16.70;;
75496;SDS011;64074;47.540;19.072;2022-10-18T22:34:15;28.10;;;16.50;;
75496;SDS011;64074;47.540;19.072;2022-10-18T22:37:40;29.90;;;18.33;;
75496;SDS011;64074;47.540;19.072;2022-10-18T22:41:05;29.37;;;17.87;;
75496;SDS011;64074;47.540;19.072;2022-10-18T22:44:23;30.48;;;18.10;;
75496;SDS011;64074;47.540;19.072;2022-10-18T22:47:43;29.98;;;17.85;;
75496;SDS011;64074;47.540;19.072;2022-10-18T22:51:04;33.78;;;18.00;;
75496;SDS011;64074;47.540;19.072;2022-10-18T22:54:28;27.33;;;16.90;;
75496;SDS011;64074;47.540;19.072;2022-10-18T22:57:49;29.07;;;17.00;;
75496;SDS011;64074;47.540;19.072;2022-10-18T23:01:14;27.30;;;16.92;;
75496;SDS011;64074;47.540;19.072;2022-10-18T23:04:34;28.33;;;16.77;;
75496;SDS011;64074;47.540;19.072;2022-10-18T23:07:54;31.00;;;17.27;;
75496;SDS011;64074;47.540;19.072;2022-10-18T23:11:19;27.83;;;16.67;;
75496;SDS011;64074;47.540;19.072;2022-10-18T23:14:44;26.27;;;15.63;;
75496;SDS011;64074;47.540;19.072;2022-10-18T23:18:05;28.95;;;15.63;;
75496;SDS011;64074;47.540;19.072;2022-10-18T23:21:27;26.95;;;15.70;;
75496;SDS011;64074;47.540;19.072;2022-10-18T23:24:49;26.50;;;15.85;;
75496;SDS011;64074;47.540;19.072;2022-10-18T23:28:10;25.40;;;15.33;;
75496;SDS011;64074;47.540;19.072;2022-10-18T23:31:48;26.37;;;16.10;;
75496;SDS011;64074;47.540;19.072;2022-10-18T23:34:58;25.00;;;15.38;;
75496;SDS011;64074;47.540;19.072;2022-10-18T23:38:19;26.42;;;14.75;;
75496;SDS011;64074;47.540;19.072;2022-10-18T23:41:41;24.60;;;15.02;;
75496;SDS011;64074;47.540;19.072;2022-10-18T23:45:03;24.83;;;14.57;;
75496;SDS011;64074;47.540;19.072;2022-10-18T23:48:24;24.63;;;14.10;;
75496;SDS011;64074;47.540;19.072;2022-10-18T23:51:48;22.77;;;14.32;;
75496;SDS011;64074;47.540;19.072;2022-10-18T23:55:10;25.08;;;14.05;;
75496;SDS011;64074;47.540;19.072;2022-10-18T23:58:31;24.83;;;14.70;;
